Huvudsida
METAR-TAF:

METAR-TAF

Flygplatser :

Port Moresby, Papua Nya Guinea

latitud: 09-26S, longitud: 147-13E, höjd: 38 m

Aktuellt väderrapport

Denna rapport gjordes för 1 timme och 23 minuter sedan, klockan 10:00 UTC
Vind 12 kt från syd/sydost
Temperatur 27°C
Fuktighet 79%
Tryck 1013 hPa
Sikt 10 km eller mer
Spridda moln på en höjd av 9500 ft

METAR: AYPY 191000Z 15012KT 9999 SCT095 27/23 Q1013

Tid: 21:23 (11:23 UTC)

Väderprognos

Denna rapport gjordes för 8 timmar och 8 minuter sedan, klockan 03:15 UTC
Prognos gäller från 19 kl. 06 UTC till 20 kl. 06 UTC
Vind 15 kt från syd
Sikt 10 km eller mer
Spridda moln på en höjd av 2000 ft

TAF: AYPY 190315Z 1906/2006 17015KT 9999 SCT020

Aktuella väderrapporter och prognoser från 4000 flygplatser (METAR- och TAF-rapporter).

De tillgängliga stationerna syns som gula och röda prickar på kartan.

För musen över prickarna för att se namnen på stationerna.

Klicka sedan för att få väderrapporter och prognoser.

För att ändra kartan: Klicka på de gröna knapparna med ett svart kors på för att zooma in; den gröna knappen med ett streck på för att zooma ut; eller på de gröna pilarna för angränsande kartor.


METAR-TAF: